sensor_id;sensor_type;location;lat;lon;timestamp;pressure;altitude;pressure_sealevel;temperature;humidity
12868;BME280;33517;49.866;8.320;2022-08-06T00:01:30;101125.84;;;17.55;68.10
12868;BME280;33517;49.866;8.320;2022-08-06T00:04:22;101134.19;;;17.52;68.46
12868;BME280;33517;49.866;8.320;2022-08-06T00:07:14;101127.13;;;17.44;68.40
12868;BME280;33517;49.866;8.320;2022-08-06T00:10:06;101131.19;;;17.40;68.89
12868;BME280;33517;49.866;8.320;2022-08-06T00:12:59;101142.22;;;17.37;68.50
12868;BME280;33517;49.866;8.320;2022-08-06T00:15:52;101152.22;;;17.35;69.23
12868;BME280;33517;49.866;8.320;2022-08-06T00:18:45;101153.88;;;17.36;68.98
12868;BME280;33517;49.866;8.320;2022-08-06T00:21:37;101154.25;;;17.33;68.74
12868;BME280;33517;49.866;8.320;2022-08-06T00:24:29;101160.63;;;17.32;68.82
12868;BME280;33517;49.866;8.320;2022-08-06T00:27:21;101167.56;;;17.33;68.80
12868;BME280;33517;49.866;8.320;2022-08-06T00:30:12;101177.16;;;17.48;69.01
12868;BME280;33517;49.866;8.320;2022-08-06T00:33:06;101175.44;;;17.62;69.57
12868;BME280;33517;49.866;8.320;2022-08-06T00:35:57;101175.44;;;17.62;68.61
12868;BME280;33517;49.866;8.320;2022-08-06T00:38:49;101184.38;;;17.55;68.61
12868;BME280;33517;49.866;8.320;2022-08-06T00:41:41;101194.09;;;17.47;68.40
12868;BME280;33517;49.866;8.320;2022-08-06T00:44:34;101200.38;;;17.40;68.07
12868;BME280;33517;49.866;8.320;2022-08-06T00:47:26;101191.72;;;17.31;68.17
12868;BME280;33517;49.866;8.320;2022-08-06T00:50:19;101196.75;;;17.26;68.12
12868;BME280;33517;49.866;8.320;2022-08-06T00:53:11;101194.47;;;17.23;68.09
12868;BME280;33517;49.866;8.320;2022-08-06T00:56:04;101199.38;;;17.20;68.44
12868;BME280;33517;49.866;8.320;2022-08-06T00:58:56;101192.97;;;17.14;68.84
12868;BME280;33517;49.866;8.320;2022-08-06T01:01:48;101195.97;;;17.11;68.63
12868;BME280;33517;49.866;8.320;2022-08-06T01:04:40;101203.25;;;17.03;68.65
12868;BME280;33517;49.866;8.320;2022-08-06T01:07:33;101203.75;;;16.92;68.89
12868;BME280;33517;49.866;8.320;2022-08-06T01:10:25;101206.31;;;16.85;69.51
12868;BME280;33517;49.866;8.320;2022-08-06T01:13:17;101211.00;;;16.83;69.53
12868;BME280;33517;49.866;8.320;2022-08-06T01:16:12;101209.28;;;16.76;69.83
12868;BME280;33517;49.866;8.320;2022-08-06T01:19:22;101221.66;;;16.69;70.13
12868;BME280;33517;49.866;8.320;2022-08-06T01:22:31;101218.06;;;16.62;69.98
12868;BME280;33517;49.866;8.320;2022-08-06T01:25:45;101224.75;;;16.57;70.60
12868;BME280;33517;49.866;8.320;2022-08-06T01:28:43;101220.81;;;16.53;70.89
12868;BME280;33517;49.866;8.320;2022-08-06T01:31:43;101224.50;;;16.52;70.45
12868;BME280;33517;49.866;8.320;2022-08-06T01:34:38;101216.41;;;16.46;70.64
12868;BME280;33517;49.866;8.320;2022-08-06T01:37:34;101219.63;;;16.41;70.66
12868;BME280;33517;49.866;8.320;2022-08-06T01:40:30;101228.59;;;16.40;70.87
12868;BME280;33517;49.866;8.320;2022-08-06T01:43:24;101232.19;;;16.47;70.72
12868;BME280;33517;49.866;8.320;2022-08-06T01:46:19;101225.78;;;16.56;70.17
12868;BME280;33517;49.866;8.320;2022-08-06T01:49:13;101216.44;;;16.61;70.44
12868;BME280;33517;49.866;8.320;2022-08-06T01:52:08;101222.22;;;16.64;69.96
12868;BME280;33517;49.866;8.320;2022-08-06T01:55:05;101226.34;;;16.67;70.12
12868;BME280;33517;49.866;8.320;2022-08-06T01:58:00;101233.59;;;16.73;70.02
12868;BME280;33517;49.866;8.320;2022-08-06T02:00:53;101227.88;;;16.76;69.60
12868;BME280;33517;49.866;8.320;2022-08-06T02:03:50;101224.84;;;16.79;69.73
12868;BME280;33517;49.866;8.320;2022-08-06T02:06:46;101226.94;;;16.83;69.39
12868;BME280;33517;49.866;8.320;2022-08-06T02:09:43;101235.19;;;16.88;69.41
12868;BME280;33517;49.866;8.320;2022-08-06T02:12:36;101239.22;;;16.99;70.31
12868;BME280;33517;49.866;8.320;2022-08-06T02:15:32;101238.19;;;17.00;69.20
12868;BME280;33517;49.866;8.320;2022-08-06T02:18:25;101241.88;;;16.99;69.50
12868;BME280;33517;49.866;8.320;2022-08-06T02:21:20;101241.00;;;17.13;69.93
12868;BME280;33517;49.866;8.320;2022-08-06T02:24:14;101240.88;;;17.35;69.65
12868;BME280;33517;49.866;8.320;2022-08-06T02:27:07;101240.22;;;17.33;68.83
12868;BME280;33517;49.866;8.320;2022-08-06T02:30:01;101241.03;;;17.34;69.03
12868;BME280;33517;49.866;8.320;2022-08-06T02:32:53;101238.75;;;17.31;69.50
12868;BME280;33517;49.866;8.320;2022-08-06T02:35:49;101242.16;;;17.25;69.17
12868;BME280;33517;49.866;8.320;2022-08-06T02:38:48;101247.97;;;17.14;68.47
12868;BME280;33517;49.866;8.320;2022-08-06T02:41:45;101253.22;;;17.07;68.53
12868;BME280;33517;49.866;8.320;2022-08-06T02:44:45;101252.91;;;17.17;68.89
12868;BME280;33517;49.866;8.320;2022-08-06T02:47:45;101253.97;;;17.37;68.80
12868;BME280;33517;49.866;8.320;2022-08-06T02:50:41;101257.25;;;17.54;68.99
12868;BME280;33517;49.866;8.320;2022-08-06T02:53:40;101251.22;;;17.45;67.89
12868;BME280;33517;49.866;8.320;2022-08-06T02:56:37;101267.63;;;17.34;67.36
12868;BME280;33517;49.866;8.320;2022-08-06T02:59:37;101260.44;;;17.28;67.10
12868;BME280;33517;49.866;8.320;2022-08-06T03:02:32;101267.19;;;17.30;67.73
12868;BME280;33517;49.866;8.320;2022-08-06T03:05:27;101268.41;;;17.28;67.41
12868;BME280;33517;49.866;8.320;2022-08-06T03:08:22;101268.59;;;17.26;67.60
12868;BME280;33517;49.866;8.320;2022-08-06T03:11:15;101270.56;;;17.03;66.35
12868;BME280;33517;49.866;8.320;2022-08-06T03:14:10;101271.50;;;16.81;66.32
12868;BME280;33517;49.866;8.320;2022-08-06T03:17:06;101272.44;;;16.74;66.53
12868;BME280;33517;49.866;8.320;2022-08-06T03:20:00;101275.25;;;16.57;67.32
12868;BME280;33517;49.866;8.320;2022-08-06T03:22:57;101282.50;;;16.49;67.25
12868;BME280;33517;49.866;8.320;2022-08-06T03:25:51;101285.16;;;16.49;67.46
12868;BME280;33517;49.866;8.320;2022-08-06T03:28:43;101280.91;;;16.40;67.33
12868;BME280;33517;49.866;8.320;2022-08-06T03:31:38;101288.00;;;16.25;67.26
12868;BME280;33517;49.866;8.320;2022-08-06T03:34:32;101281.38;;;16.06;67.15
12868;BME280;33517;49.866;8.320;2022-08-06T03:37:25;101293.13;;;15.89;67.54
12868;BME280;33517;49.866;8.320;2022-08-06T03:40:18;101286.59;;;15.77;67.63
12868;BME280;33517;49.866;8.320;2022-08-06T03:43:11;101294.31;;;15.64;68.21
12868;BME280;33517;49.866;8.320;2022-08-06T03:46:05;101285.00;;;15.45;68.56
12868;BME280;33517;49.866;8.320;2022-08-06T03:49:02;101294.97;;;15.35;69.18
12868;BME280;33517;49.866;8.320;2022-08-06T03:51:56;101299.81;;;15.24;69.13
12868;BME280;33517;49.866;8.320;2022-08-06T03:54:53;101298.22;;;15.15;69.04
12868;BME280;33517;49.866;8.320;2022-08-06T03:57:47;101310.84;;;15.05;69.59
12868;BME280;33517;49.866;8.320;2022-08-06T04:00:44;101306.41;;;14.97;69.77
12868;BME280;33517;49.866;8.320;2022-08-06T04:03:36;101297.31;;;14.92;70.04
12868;BME280;33517;49.866;8.320;2022-08-06T04:06:30;101301.97;;;14.82;70.65
12868;BME280;33517;49.866;8.320;2022-08-06T04:09:24;101310.41;;;14.85;71.08
12868;BME280;33517;49.866;8.320;2022-08-06T04:12:17;101311.41;;;14.92;71.94
12868;BME280;33517;49.866;8.320;2022-08-06T04:15:10;101308.03;;;15.06;71.42
12868;BME280;33517;49.866;8.320;2022-08-06T04:18:04;101304.22;;;15.09;71.43
12868;BME280;33517;49.866;8.320;2022-08-06T04:20:59;101310.03;;;15.04;71.25
12868;BME280;33517;49.866;8.320;2022-08-06T04:23:54;101315.19;;;14.98;71.55
12868;BME280;33517;49.866;8.320;2022-08-06T04:26:49;101322.19;;;14.91;70.66
12868;BME280;33517;49.866;8.320;2022-08-06T04:29:42;101321.38;;;14.82;71.65
12868;BME280;33517;49.866;8.320;2022-08-06T04:32:36;101322.88;;;14.76;71.34
12868;BME280;33517;49.866;8.320;2022-08-06T04:35:29;101325.69;;;14.75;71.27
12868;BME280;33517;49.866;8.320;2022-08-06T04:38:23;101328.53;;;14.73;71.71
12868;BME280;33517;49.866;8.320;2022-08-06T04:41:16;101335.00;;;14.55;72.10
12868;BME280;33517;49.866;8.320;2022-08-06T04:44:08;101334.19;;;14.54;72.45
12868;BME280;33517;49.866;8.320;2022-08-06T04:47:01;101336.50;;;14.49;72.91
12868;BME280;33517;49.866;8.320;2022-08-06T04:49:54;101334.34;;;14.53;72.68
12868;BME280;33517;49.866;8.320;2022-08-06T04:52:46;101332.19;;;14.56;72.98
12868;BME280;33517;49.866;8.320;2022-08-06T04:55:39;101337.81;;;14.61;73.32
12868;BME280;33517;49.866;8.320;2022-08-06T04:58:33;101334.78;;;14.89;73.86
12868;BME280;33517;49.866;8.320;2022-08-06T05:01:25;101341.34;;;15.01;72.82
12868;BME280;33517;49.866;8.320;2022-08-06T05:04:17;101341.00;;;15.12;72.84
12868;BME280;33517;49.866;8.320;2022-08-06T05:07:13;101350.53;;;15.29;71.83
12868;BME280;33517;49.866;8.320;2022-08-06T05:10:07;101342.66;;;15.51;71.41
12868;BME280;33517;49.866;8.320;2022-08-06T05:13:00;101354.31;;;15.73;70.65
12868;BME280;33517;49.866;8.320;2022-08-06T05:15:57;101354.84;;;15.91;69.29
12868;BME280;33517;49.866;8.320;2022-08-06T05:18:51;101355.06;;;16.04;68.51
12868;BME280;33517;49.866;8.320;2022-08-06T05:21:45;101366.56;;;16.19;68.30
12868;BME280;33517;49.866;8.320;2022-08-06T05:24:40;101361.25;;;16.42;68.21
12868;BME280;33517;49.866;8.320;2022-08-06T05:27:33;101365.97;;;16.54;67.28
12868;BME280;33517;49.866;8.320;2022-08-06T05:30:25;101368.38;;;16.64;66.73
12868;BME280;33517;49.866;8.320;2022-08-06T05:33:26;101371.81;;;16.73;66.81
12868;BME280;33517;49.866;8.320;2022-08-06T05:36:18;101376.47;;;16.85;66.42
12868;BME280;33517;49.866;8.320;2022-08-06T05:39:10;101360.25;;;16.95;65.38
12868;BME280;33517;49.866;8.320;2022-08-06T05:42:02;101367.56;;;17.07;65.56
12868;BME280;33517;49.866;8.320;2022-08-06T05:44:54;101370.34;;;17.14;65.24
12868;BME280;33517;49.866;8.320;2022-08-06T05:47:46;101380.16;;;17.28;65.41
12868;BME280;33517;49.866;8.320;2022-08-06T05:50:45;101380.13;;;17.42;65.45
12868;BME280;33517;49.866;8.320;2022-08-06T05:53:43;101383.63;;;17.58;64.49
12868;BME280;33517;49.866;8.320;2022-08-06T05:56:39;101385.25;;;17.73;64.61
12868;BME280;33517;49.866;8.320;2022-08-06T05:59:35;101396.34;;;17.98;63.96
12868;BME280;33517;49.866;8.320;2022-08-06T06:02:30;101392.53;;;18.43;64.34
12868;BME280;33517;49.866;8.320;2022-08-06T06:05:22;101385.78;;;19.36;62.94
12868;BME280;33517;49.866;8.320;2022-08-06T06:08:17;101385.88;;;22.83;52.64
12868;BME280;33517;49.866;8.320;2022-08-06T06:11:10;101396.50;;;25.83;45.98
12868;BME280;33517;49.866;8.320;2022-08-06T06:14:02;101409.34;;;27.25;40.98
12868;BME280;33517;49.866;8.320;2022-08-06T06:17:05;101419.03;;;28.66;39.62
12868;BME280;33517;49.866;8.320;2022-08-06T06:20:10;101415.81;;;29.68;37.70
12868;BME280;33517;49.866;8.320;2022-08-06T06:23:08;101428.72;;;30.53;37.21
12868;BME280;33517;49.866;8.320;2022-08-06T06:26:13;101430.88;;;31.01;35.77
12868;BME280;33517;49.866;8.320;2022-08-06T06:29:12;101427.53;;;31.24;35.38
12868;BME280;33517;49.866;8.320;2022-08-06T06:32:10;101423.06;;;31.63;34.26
12868;BME280;33517;49.866;8.320;2022-08-06T06:35:15;101439.47;;;32.02;32.78
12868;BME280;33517;49.866;8.320;2022-08-06T06:38:30;101439.69;;;32.11;33.19
12868;BME280;33517;49.866;8.320;2022-08-06T06:41:29;101425.66;;;32.27;32.15
12868;BME280;33517;49.866;8.320;2022-08-06T06:44:25;101436.31;;;32.91;31.84
12868;BME280;33517;49.866;8.320;2022-08-06T06:47:27;101441.16;;;33.23;30.80
12868;BME280;33517;49.866;8.320;2022-08-06T06:50:23;101438.03;;;34.00;29.74
12868;BME280;33517;49.866;8.320;2022-08-06T06:53:17;101430.41;;;33.97;29.37
12868;BME280;33517;49.866;8.320;2022-08-06T06:56:11;101427.72;;;33.55;28.58
12868;BME280;33517;49.866;8.320;2022-08-06T06:59:11;101430.44;;;33.08;29.16
12868;BME280;33517;49.866;8.320;2022-08-06T07:02:05;101432.63;;;33.29;28.71
12868;BME280;33517;49.866;8.320;2022-08-06T07:04:58;101435.03;;;33.78;28.78
12868;BME280;33517;49.866;8.320;2022-08-06T07:07:54;101428.97;;;34.05;27.89
12868;BME280;33517;49.866;8.320;2022-08-06T07:10:48;101434.84;;;34.12;28.05
12868;BME280;33517;49.866;8.320;2022-08-06T07:13:41;101432.38;;;34.29;28.06
12868;BME280;33517;49.866;8.320;2022-08-06T07:16:35;101430.69;;;35.24;27.11
12868;BME280;33517;49.866;8.320;2022-08-06T07:19:28;101432.25;;;36.16;26.91
12868;BME280;33517;49.866;8.320;2022-08-06T07:22:22;101432.59;;;36.58;26.63
12868;BME280;33517;49.866;8.320;2022-08-06T07:25:16;101435.09;;;36.24;25.76
12868;BME280;33517;49.866;8.320;2022-08-06T07:28:09;101431.28;;;36.56;24.81
12868;BME280;33517;49.866;8.320;2022-08-06T07:31:04;101440.84;;;35.87;24.25
12868;BME280;33517;49.866;8.320;2022-08-06T07:33:57;101440.72;;;35.56;25.46
12868;BME280;33517;49.866;8.320;2022-08-06T07:36:52;101439.28;;;35.18;25.97
12868;BME280;33517;49.866;8.320;2022-08-06T07:39:44;101440.22;;;36.61;25.03
12868;BME280;33517;49.866;8.320;2022-08-06T07:42:37;101437.28;;;37.84;24.59
12868;BME280;33517;49.866;8.320;2022-08-06T07:45:32;101448.47;;;37.96;23.71
12868;BME280;33517;49.866;8.320;2022-08-06T07:48:31;101442.31;;;38.08;23.32
12868;BME280;33517;49.866;8.320;2022-08-06T07:51:27;101441.59;;;38.79;23.35
12868;BME280;33517;49.866;8.320;2022-08-06T07:54:21;101448.25;;;38.61;22.66
12868;BME280;33517;49.866;8.320;2022-08-06T07:57:16;101440.03;;;38.44;22.18
12868;BME280;33517;49.866;8.320;2022-08-06T08:00:09;101437.25;;;37.58;22.91
12868;BME280;33517;49.866;8.320;2022-08-06T08:03:01;101441.22;;;37.35;22.40
12868;BME280;33517;49.866;8.320;2022-08-06T08:06:11;101430.56;;;37.42;22.98
12868;BME280;33517;49.866;8.320;2022-08-06T08:09:16;101434.19;;;38.54;21.91
12868;BME280;33517;49.866;8.320;2022-08-06T08:12:11;101438.94;;;38.02;21.05
12868;BME280;33517;49.866;8.320;2022-08-06T08:15:05;101448.06;;;38.83;21.27
12868;BME280;33517;49.866;8.320;2022-08-06T08:17:57;101441.28;;;37.69;21.67
12868;BME280;33517;49.866;8.320;2022-08-06T08:20:50;101430.03;;;37.97;21.14
12868;BME280;33517;49.866;8.320;2022-08-06T08:23:43;101440.88;;;37.93;20.55
12868;BME280;33517;49.866;8.320;2022-08-06T08:26:37;101438.78;;;37.99;20.29
12868;BME280;33517;49.866;8.320;2022-08-06T08:29:29;101452.00;;;37.88;19.84
12868;BME280;33517;49.866;8.320;2022-08-06T08:32:21;101452.34;;;38.38;20.55
12868;BME280;33517;49.866;8.320;2022-08-06T08:35:13;101444.72;;;38.69;20.74
12868;BME280;33517;49.866;8.320;2022-08-06T08:38:06;101454.34;;;39.30;20.29
12868;BME280;33517;49.866;8.320;2022-08-06T08:41:01;101452.38;;;39.39;19.58
12868;BME280;33517;49.866;8.320;2022-08-06T08:43:59;101452.31;;;39.77;19.53
12868;BME280;33517;49.866;8.320;2022-08-06T08:46:54;101441.72;;;40.40;19.01
12868;BME280;33517;49.866;8.320;2022-08-06T08:49:50;101437.09;;;40.00;19.15
12868;BME280;33517;49.866;8.320;2022-08-06T08:52:44;101441.41;;;40.87;18.15
12868;BME280;33517;49.866;8.320;2022-08-06T08:55:37;101430.03;;;40.88;18.17
12868;BME280;33517;49.866;8.320;2022-08-06T08:58:30;101434.50;;;40.36;18.47
12868;BME280;33517;49.866;8.320;2022-08-06T09:01:28;101433.97;;;41.23;18.48
12868;BME280;33517;49.866;8.320;2022-08-06T09:04:20;101443.75;;;41.09;17.86
12868;BME280;33517;49.866;8.320;2022-08-06T09:07:12;101438.78;;;41.02;18.45
12868;BME280;33517;49.866;8.320;2022-08-06T09:10:06;101430.47;;;40.13;18.25
12868;BME280;33517;49.866;8.320;2022-08-06T09:12:58;101440.69;;;39.42;18.98
12868;BME280;33517;49.866;8.320;2022-08-06T09:15:50;101437.97;;;39.63;18.80
12868;BME280;33517;49.866;8.320;2022-08-06T09:18:43;101440.50;;;39.97;18.24
12868;BME280;33517;49.866;8.320;2022-08-06T09:21:35;101434.56;;;39.66;18.64
12868;BME280;33517;49.866;8.320;2022-08-06T09:24:28;101429.84;;;40.61;18.07
12868;BME280;33517;49.866;8.320;2022-08-06T09:27:20;101429.59;;;40.66;17.54
12868;BME280;33517;49.866;8.320;2022-08-06T09:30:16;101435.00;;;40.29;17.46
12868;BME280;33517;49.866;8.320;2022-08-06T09:33:12;101430.06;;;41.24;18.25
12868;BME280;33517;49.866;8.320;2022-08-06T09:36:07;101431.88;;;41.08;16.95
12868;BME280;33517;49.866;8.320;2022-08-06T09:39:00;101439.38;;;40.51;17.95
12868;BME280;33517;49.866;8.320;2022-08-06T09:41:52;101427.38;;;36.48;20.34
12868;BME280;33517;49.866;8.320;2022-08-06T09:45:07;101426.88;;;36.02;21.56
12868;BME280;33517;49.866;8.320;2022-08-06T09:48:04;101429.69;;;37.98;19.55
12868;BME280;33517;49.866;8.320;2022-08-06T09:50:56;101430.66;;;39.08;19.40
12868;BME280;33517;49.866;8.320;2022-08-06T09:53:52;101434.50;;;39.74;18.39
12868;BME280;33517;49.866;8.320;2022-08-06T09:56:55;101440.25;;;39.61;17.66
12868;BME280;33517;49.866;8.320;2022-08-06T09:59:48;101436.97;;;40.29;17.75
12868;BME280;33517;49.866;8.320;2022-08-06T10:02:40;101427.03;;;40.93;17.97
12868;BME280;33517;49.866;8.320;2022-08-06T10:05:33;101440.88;;;42.33;17.12
12868;BME280;33517;49.866;8.320;2022-08-06T10:08:27;101433.53;;;41.85;16.96
12868;BME280;33517;49.866;8.320;2022-08-06T10:11:33;101431.19;;;42.55;16.49
12868;BME280;33517;49.866;8.320;2022-08-06T10:14:28;101427.16;;;41.45;16.41
12868;BME280;33517;49.866;8.320;2022-08-06T10:17:21;101437.06;;;40.98;16.77
12868;BME280;33517;49.866;8.320;2022-08-06T10:20:13;101434.50;;;40.36;16.81
12868;BME280;33517;49.866;8.320;2022-08-06T10:23:08;101432.22;;;41.55;16.62
12868;BME280;33517;49.866;8.320;2022-08-06T10:26:02;101424.78;;;42.97;15.91
12868;BME280;33517;49.866;8.320;2022-08-06T10:29:00;101427.97;;;41.34;16.51
12868;BME280;33517;49.866;8.320;2022-08-06T10:31:55;101432.22;;;41.43;16.22
12868;BME280;33517;49.866;8.320;2022-08-06T10:34:49;101425.75;;;40.91;17.45
12868;BME280;33517;49.866;8.320;2022-08-06T10:37:45;101425.00;;;40.25;17.35
12868;BME280;33517;49.866;8.320;2022-08-06T10:40:39;101414.38;;;41.16;17.08
12868;BME280;33517;49.866;8.320;2022-08-06T10:43:34;101414.75;;;40.25;17.22
12868;BME280;33517;49.866;8.320;2022-08-06T10:46:28;101418.75;;;40.93;17.10
12868;BME280;33517;49.866;8.320;2022-08-06T10:49:21;101411.69;;;39.86;16.70
12868;BME280;33517;49.866;8.320;2022-08-06T10:52:13;101417.50;;;40.13;17.14
12868;BME280;33517;49.866;8.320;2022-08-06T10:55:06;101409.69;;;40.15;17.32
12868;BME280;33517;49.866;8.320;2022-08-06T10:57:59;101407.97;;;41.24;16.18
12868;BME280;33517;49.866;8.320;2022-08-06T11:00:52;101411.78;;;40.30;16.50
12868;BME280;33517;49.866;8.320;2022-08-06T11:04:11;101412.03;;;40.05;16.92
12868;BME280;33517;49.866;8.320;2022-08-06T11:07:26;101404.13;;;41.41;16.40
12868;BME280;33517;49.866;8.320;2022-08-06T11:10:33;101397.41;;;41.54;16.31
12868;BME280;33517;49.866;8.320;2022-08-06T11:13:31;101395.47;;;41.67;15.70
12868;BME280;33517;49.866;8.320;2022-08-06T11:16:25;101394.81;;;40.85;16.10
12868;BME280;33517;49.866;8.320;2022-08-06T11:19:18;101396.69;;;40.36;16.65
12868;BME280;33517;49.866;8.320;2022-08-06T11:22:32;101398.06;;;40.22;16.00
12868;BME280;33517;49.866;8.320;2022-08-06T11:25:37;101388.69;;;41.40;15.66
12868;BME280;33517;49.866;8.320;2022-08-06T11:28:56;101381.69;;;40.82;15.53
12868;BME280;33517;49.866;8.320;2022-08-06T11:31:51;101386.53;;;41.34;15.21
12868;BME280;33517;49.866;8.320;2022-08-06T11:34:44;101382.06;;;42.08;14.63
12868;BME280;33517;49.866;8.320;2022-08-06T11:37:42;101392.16;;;41.89;14.60
12868;BME280;33517;49.866;8.320;2022-08-06T11:40:55;101384.97;;;41.72;13.69
12868;BME280;33517;49.866;8.320;2022-08-06T11:43:54;101375.97;;;41.63;14.21
12868;BME280;33517;49.866;8.320;2022-08-06T11:47:09;101369.66;;;40.09;14.88
12868;BME280;33517;49.866;8.320;2022-08-06T11:50:22;101364.47;;;39.25;15.12
12868;BME280;33517;49.866;8.320;2022-08-06T11:53:36;101367.72;;;38.35;16.53
12868;BME280;33517;49.866;8.320;2022-08-06T11:56:29;101363.75;;;39.78;15.78
12868;BME280;33517;49.866;8.320;2022-08-06T11:59:21;101374.75;;;41.37;14.78
12868;BME280;33517;49.866;8.320;2022-08-06T12:02:16;101372.59;;;39.42;15.66
12868;BME280;33517;49.866;8.320;2022-08-06T12:05:34;101368.50;;;39.90;15.86
12868;BME280;33517;49.866;8.320;2022-08-06T12:08:26;101366.53;;;41.52;15.14
12868;BME280;33517;49.866;8.320;2022-08-06T12:11:27;101358.31;;;42.07;13.87
12868;BME280;33517;49.866;8.320;2022-08-06T12:14:41;101352.78;;;42.07;14.44
12868;BME280;33517;49.866;8.320;2022-08-06T12:17:33;101362.19;;;42.34;14.23
12868;BME280;33517;49.866;8.320;2022-08-06T12:20:31;101351.91;;;41.91;13.70
12868;BME280;33517;49.866;8.320;2022-08-06T12:23:23;101356.41;;;41.56;14.68
12868;BME280;33517;49.866;8.320;2022-08-06T12:26:15;101342.91;;;41.03;14.35
12868;BME280;33517;49.866;8.320;2022-08-06T12:29:08;101345.09;;;40.85;14.80
12868;BME280;33517;49.866;8.320;2022-08-06T12:32:00;101344.16;;;40.69;14.72
12868;BME280;33517;49.866;8.320;2022-08-06T12:34:53;101328.84;;;40.72;14.67
12868;BME280;33517;49.866;8.320;2022-08-06T12:37:47;101324.75;;;40.21;14.84
12868;BME280;33517;49.866;8.320;2022-08-06T12:40:39;101320.94;;;39.93;15.33
12868;BME280;33517;49.866;8.320;2022-08-06T12:43:32;101323.69;;;40.82;15.42
12868;BME280;33517;49.866;8.320;2022-08-06T12:46:26;101321.63;;;40.79;15.72
12868;BME280;33517;49.866;8.320;2022-08-06T12:49:29;101327.38;;;39.64;16.01
12868;BME280;33517;49.866;8.320;2022-08-06T12:52:21;101322.72;;;39.15;16.23
12868;BME280;33517;49.866;8.320;2022-08-06T12:55:17;101317.81;;;38.53;16.27
12868;BME280;33517;49.866;8.320;2022-08-06T12:58:10;101307.03;;;36.94;16.85
12868;BME280;33517;49.866;8.320;2022-08-06T13:01:05;101308.81;;;36.51;17.28
12868;BME280;33517;49.866;8.320;2022-08-06T13:03:59;101310.16;;;34.62;18.95
12868;BME280;33517;49.866;8.320;2022-08-06T13:06:52;101301.22;;;32.99;19.30
12868;BME280;33517;49.866;8.320;2022-08-06T13:09:45;101304.63;;;31.17;20.59
12868;BME280;33517;49.866;8.320;2022-08-06T13:12:40;101298.06;;;29.94;21.60
12868;BME280;33517;49.866;8.320;2022-08-06T13:15:32;101296.28;;;29.13;22.52
12868;BME280;33517;49.866;8.320;2022-08-06T13:18:24;101285.84;;;28.89;22.68
12868;BME280;33517;49.866;8.320;2022-08-06T13:21:17;101290.19;;;28.90;23.51
12868;BME280;33517;49.866;8.320;2022-08-06T13:24:10;101279.34;;;28.44;23.85
12868;BME280;33517;49.866;8.320;2022-08-06T13:27:03;101293.19;;;28.10;24.11
12868;BME280;33517;49.866;8.320;2022-08-06T13:30:00;101286.53;;;27.65;24.31
12868;BME280;33517;49.866;8.320;2022-08-06T13:32:52;101286.81;;;27.63;23.99
12868;BME280;33517;49.866;8.320;2022-08-06T13:35:45;101276.25;;;27.62;24.03
12868;BME280;33517;49.866;8.320;2022-08-06T13:38:37;101270.81;;;27.35;24.40
12868;BME280;33517;49.866;8.320;2022-08-06T13:41:30;101269.69;;;27.31;23.68
12868;BME280;33517;49.866;8.320;2022-08-06T13:44:26;101262.78;;;27.18;25.06
12868;BME280;33517;49.866;8.320;2022-08-06T13:47:27;101267.81;;;27.10;24.83
12868;BME280;33517;49.866;8.320;2022-08-06T13:50:19;101270.00;;;26.91;24.89
12868;BME280;33517;49.866;8.320;2022-08-06T13:53:12;101262.97;;;27.12;25.69
12868;BME280;33517;49.866;8.320;2022-08-06T13:56:04;101261.19;;;27.22;25.04
12868;BME280;33517;49.866;8.320;2022-08-06T13:58:57;101261.66;;;27.14;24.99
12868;BME280;33517;49.866;8.320;2022-08-06T14:01:49;101259.31;;;27.23;25.43
12868;BME280;33517;49.866;8.320;2022-08-06T14:04:42;101262.91;;;27.07;24.84
12868;BME280;33517;49.866;8.320;2022-08-06T14:07:34;101260.28;;;26.90;25.26
12868;BME280;33517;49.866;8.320;2022-08-06T14:10:26;101258.59;;;26.84;25.37
12868;BME280;33517;49.866;8.320;2022-08-06T14:13:18;101251.44;;;26.73;24.86
12868;BME280;33517;49.866;8.320;2022-08-06T14:16:10;101248.22;;;26.76;25.02
12868;BME280;33517;49.866;8.320;2022-08-06T14:19:03;101261.03;;;26.86;25.39
12868;BME280;33517;49.866;8.320;2022-08-06T14:21:56;101259.19;;;26.91;25.41
12868;BME280;33517;49.866;8.320;2022-08-06T14:24:48;101261.69;;;26.93;25.13
12868;BME280;33517;49.866;8.320;2022-08-06T14:27:40;101249.03;;;26.77;24.64
12868;BME280;33517;49.866;8.320;2022-08-06T14:30:32;101258.13;;;26.71;24.97
12868;BME280;33517;49.866;8.320;2022-08-06T14:33:24;101254.47;;;26.60;24.79
12868;BME280;33517;49.866;8.320;2022-08-06T14:36:16;101248.63;;;26.47;25.62
12868;BME280;33517;49.866;8.320;2022-08-06T14:39:09;101253.22;;;26.13;25.87
12868;BME280;33517;49.866;8.320;2022-08-06T14:42:02;101243.84;;;26.15;25.85
12868;BME280;33517;49.866;8.320;2022-08-06T14:45:11;101240.47;;;26.25;25.91
12868;BME280;33517;49.866;8.320;2022-08-06T14:48:03;101240.78;;;26.28;26.13
12868;BME280;33517;49.866;8.320;2022-08-06T14:50:55;101241.75;;;26.39;26.25
12868;BME280;33517;49.866;8.320;2022-08-06T14:53:47;101233.00;;;26.49;25.85
12868;BME280;33517;49.866;8.320;2022-08-06T14:56:41;101230.16;;;26.60;26.01
12868;BME280;33517;49.866;8.320;2022-08-06T14:59:33;101237.44;;;26.60;25.65
12868;BME280;33517;49.866;8.320;2022-08-06T15:02:25;101228.06;;;26.45;25.60
12868;BME280;33517;49.866;8.320;2022-08-06T15:05:17;101229.47;;;26.48;26.05
12868;BME280;33517;49.866;8.320;2022-08-06T15:08:09;101222.88;;;26.61;26.45
12868;BME280;33517;49.866;8.320;2022-08-06T15:11:01;101220.09;;;26.56;26.50
12868;BME280;33517;49.866;8.320;2022-08-06T15:13:55;101212.75;;;26.51;26.06
12868;BME280;33517;49.866;8.320;2022-08-06T15:16:46;101207.16;;;26.36;26.12